createdAt,value
2019-05-18T00:01:03.226Z,12.00
2019-05-18T00:06:07.905Z,12.00
2019-05-18T00:11:14.505Z,12.00
2019-05-18T00:16:21.169Z,11.90
2019-05-18T00:21:28.064Z,11.90
2019-05-18T00:26:36.188Z,11.90
2019-05-18T00:31:49.397Z,11.90
2019-05-18T00:36:53.369Z,11.90
2019-05-18T00:41:58.144Z,11.80
2019-05-18T00:47:03.907Z,11.80
2019-05-18T00:52:08.417Z,11.80
2019-05-18T00:57:16.327Z,11.70
2019-05-18T01:02:21.895Z,11.70
2019-05-18T01:07:26.553Z,11.70
2019-05-18T01:12:38.350Z,11.60
2019-05-18T01:17:56.409Z,11.60
2019-05-18T01:22:50.945Z,11.70
2019-05-18T01:27:55.602Z,11.80
2019-05-18T01:33:03.701Z,11.80
2019-05-18T01:38:11.940Z,11.80
2019-05-18T01:43:17.243Z,11.90
2019-05-18T01:48:23.284Z,11.90
2019-05-18T01:53:29.519Z,12.00
2019-05-18T01:58:34.209Z,12.00
2019-05-18T02:03:39.279Z,12.00
2019-05-18T02:09:04.999Z,12.00
2019-05-18T02:14:09.694Z,12.00
2019-05-18T02:19:15.518Z,12.00
2019-05-18T02:24:22.089Z,12.00
2019-05-18T02:29:29.309Z,12.00
2019-05-18T02:34:33.854Z,12.00
2019-05-18T02:39:38.498Z,12.00
2019-05-18T02:44:44.807Z,12.00
2019-05-18T02:49:49.347Z,11.90
2019-05-18T02:55:01.143Z,11.90
2019-05-18T03:00:10.814Z,11.90
2019-05-18T03:05:15.800Z,11.90
2019-05-18T03:10:22.111Z,11.90
2019-05-18T03:15:26.826Z,11.90
2019-05-18T03:20:31.406Z,11.70
2019-05-18T03:25:37.240Z,11.60
2019-05-18T03:30:42.456Z,11.60
2019-05-18T03:35:47.757Z,11.60
2019-05-18T03:40:52.330Z,11.60
2019-05-18T03:45:56.873Z,11.60
2019-05-18T03:51:01.609Z,11.70
2019-05-18T03:56:07.945Z,11.60
2019-05-18T04:01:12.519Z,11.60
2019-05-18T04:06:17.131Z,11.70
2019-05-18T04:11:23.480Z,11.70
2019-05-18T04:16:28.940Z,11.70
2019-05-18T04:21:33.481Z,11.70
2019-05-18T04:26:38.490Z,11.70
2019-05-18T04:31:43.566Z,11.80
2019-05-18T04:36:49.885Z,11.80
2019-05-18T04:42:00.345Z,11.70
2019-05-18T04:47:07.430Z,11.70
2019-05-18T04:52:19.759Z,11.70
2019-05-18T04:57:33.295Z,11.80
2019-05-18T05:02:40.782Z,11.80
2019-05-18T05:07:49.141Z,11.70
2019-05-18T05:12:55.973Z,11.70
2019-05-18T05:18:01.586Z,11.70
2019-05-18T05:23:08.826Z,11.60
2019-05-18T05:28:26.254Z,11.60
2019-05-18T05:33:30.894Z,11.60
2019-05-18T05:38:35.691Z,11.60
2019-05-18T05:43:40.169Z,11.70
2019-05-18T05:48:47.000Z,11.80
2019-05-18T05:53:51.444Z,11.90
2019-05-18T05:58:55.844Z,12.00
2019-05-18T06:04:00.226Z,12.10
2019-05-18T06:09:06.543Z,12.20
2019-05-18T06:14:10.945Z,12.30
2019-05-18T06:19:15.344Z,12.40
2019-05-18T06:24:19.903Z,12.60
2019-05-18T06:29:24.289Z,12.70
2019-05-18T06:34:28.862Z,12.80
2019-05-18T06:39:33.341Z,12.90
2019-05-18T06:44:37.738Z,13.10
2019-05-18T06:49:42.196Z,13.20
2019-05-18T06:54:46.614Z,13.30
2019-05-18T06:59:51.199Z,13.50
2019-05-18T07:04:55.615Z,13.60
2019-05-18T07:10:00.031Z,13.60
2019-05-18T07:15:07.023Z,13.80
2019-05-18T07:20:13.723Z,14.00
2019-05-18T07:25:18.276Z,14.10
2019-05-18T07:30:22.655Z,14.30
2019-05-18T07:35:27.062Z,14.50
2019-05-18T07:40:31.518Z,14.60
2019-05-18T07:45:35.966Z,14.70
2019-05-18T07:50:40.368Z,14.90
2019-05-18T07:55:44.769Z,15.20
2019-05-18T08:00:49.156Z,15.40
2019-05-18T08:05:53.681Z,15.50
2019-05-18T08:10:58.164Z,15.70
2019-05-18T08:16:02.629Z,15.80
2019-05-18T08:21:07.014Z,15.90
2019-05-18T08:26:11.451Z,15.90
2019-05-18T08:31:17.380Z,15.90
2019-05-18T08:36:21.816Z,16.10
2019-05-18T08:41:26.239Z,16.30
2019-05-18T08:46:30.748Z,16.30
2019-05-18T08:51:35.152Z,16.40
2019-05-18T08:56:39.680Z,16.60
2019-05-18T09:01:44.070Z,16.70
2019-05-18T09:06:48.621Z,17.00
2019-05-18T09:11:52.987Z,17.20
2019-05-18T09:16:57.384Z,17.30
2019-05-18T09:22:01.777Z,17.50
2019-05-18T09:27:06.199Z,17.50
2019-05-18T09:32:10.580Z,17.70
2019-05-18T09:37:14.988Z,17.80
2019-05-18T09:42:19.463Z,18.00
2019-05-18T09:47:23.861Z,18.10
2019-05-18T09:52:44.142Z,18.50
2019-05-18T09:57:34.368Z,18.80
2019-05-18T10:02:38.837Z,18.80
2019-05-18T10:07:43.344Z,19.20
2019-05-18T10:12:47.772Z,19.60
2019-05-18T10:17:52.168Z,20.10
2019-05-18T10:23:11.893Z,20.50
2019-05-18T10:28:02.699Z,20.90
2019-05-18T10:33:07.178Z,21.00
2019-05-18T10:38:11.714Z,21.20
2019-05-18T10:43:16.130Z,21.20
2019-05-18T10:48:20.561Z,21.20
2019-05-18T10:53:28.616Z,21.00
2019-05-18T10:58:41.483Z,21.10
2019-05-18T11:03:45.891Z,21.20
2019-05-18T11:08:50.288Z,21.00
2019-05-18T11:13:56.979Z,21.70
2019-05-18T11:19:01.541Z,22.40
2019-05-18T11:24:06.676Z,22.60
2019-05-18T11:29:11.085Z,23.10
2019-05-18T11:34:15.479Z,23.50
2019-05-18T11:39:19.932Z,23.70
2019-05-18T11:44:24.467Z,23.50
2019-05-18T11:49:29.300Z,23.20
2019-05-18T11:54:34.246Z,23.20
2019-05-18T11:59:38.666Z,23.50
2019-05-18T12:04:56.778Z,23.70
2019-05-18T12:10:01.195Z,23.80
2019-05-18T12:15:12.307Z,24.10
2019-05-18T12:20:17.253Z,23.50
2019-05-18T12:25:21.876Z,22.90
2019-05-18T12:30:26.969Z,22.30
2019-05-18T12:35:31.459Z,22.20
2019-05-18T12:40:35.832Z,22.00
2019-05-18T12:45:41.921Z,21.80
2019-05-18T12:50:46.337Z,21.80
2019-05-18T12:55:50.809Z,21.80
2019-05-18T13:00:55.201Z,21.80
2019-05-18T13:05:59.584Z,21.90
2019-05-18T13:11:04.064Z,21.90
2019-05-18T13:16:10.062Z,22.20
2019-05-18T13:21:14.547Z,22.90
2019-05-18T13:26:18.991Z,23.90
2019-05-18T13:31:23.402Z,24.30
2019-05-18T13:36:27.792Z,24.50
2019-05-18T13:41:32.211Z,25.00
2019-05-18T13:46:38.131Z,25.40
2019-05-18T13:51:42.556Z,25.60
2019-05-18T13:56:46.939Z,25.70
2019-05-18T14:01:51.328Z,26.30
2019-05-18T14:06:55.885Z,26.80
2019-05-18T14:12:00.295Z,26.70
2019-05-18T14:17:04.695Z,26.20
2019-05-18T14:22:09.086Z,25.70
2019-05-18T14:27:13.488Z,25.00
2019-05-18T14:32:17.884Z,24.20
2019-05-18T14:37:22.489Z,23.90
2019-05-18T14:42:26.862Z,23.50
2019-05-18T14:47:31.362Z,23.10
2019-05-18T14:52:35.994Z,22.80
2019-05-18T14:57:40.510Z,22.70
2019-05-18T15:02:44.969Z,22.60
2019-05-18T15:07:49.511Z,22.50
2019-05-18T15:12:53.927Z,22.40
2019-05-18T15:17:58.376Z,22.30
2019-05-18T15:23:02.875Z,22.30
2019-05-18T15:28:07.348Z,22.20
2019-05-18T15:33:11.756Z,22.20
2019-05-18T15:38:16.162Z,22.20
2019-05-18T15:43:20.640Z,22.20
2019-05-18T15:48:25.143Z,22.20
2019-05-18T15:53:29.720Z,22.10
2019-05-18T15:58:34.111Z,22.10
2019-05-18T16:03:38.500Z,21.90
2019-05-18T16:08:42.887Z,21.60
2019-05-18T16:13:47.316Z,21.50
2019-05-18T16:18:51.809Z,21.30
2019-05-18T16:23:56.213Z,21.30
2019-05-18T16:29:00.881Z,21.20
2019-05-18T16:34:08.108Z,21.10
2019-05-18T16:39:12.661Z,21.00
2019-05-18T16:44:17.160Z,21.00
2019-05-18T16:49:21.579Z,21.00
2019-05-18T16:54:26.376Z,20.90
2019-05-18T16:59:30.769Z,20.90
2019-05-18T17:04:35.219Z,20.90
2019-05-18T17:09:39.860Z,20.90
2019-05-18T17:14:44.258Z,21.00
2019-05-18T17:19:48.672Z,21.10
2019-05-18T17:24:53.127Z,21.20
2019-05-18T17:29:57.565Z,21.40
2019-05-18T17:35:02.034Z,21.40
2019-05-18T17:40:06.957Z,21.40
2019-05-18T17:45:12.401Z,21.20
2019-05-18T17:50:17.723Z,21.10
2019-05-18T17:55:24.024Z,21.10
2019-05-18T18:00:28.571Z,21.10
2019-05-18T18:05:32.999Z,21.10
2019-05-18T18:10:38.971Z,21.10
2019-05-18T18:15:43.408Z,21.00
2019-05-18T18:20:48.218Z,20.90
2019-05-18T18:25:52.616Z,20.60
2019-05-18T18:30:57.184Z,20.40
2019-05-18T18:36:01.582Z,20.20
2019-05-18T18:41:05.973Z,20.00
2019-05-18T18:46:10.356Z,19.80
2019-05-18T18:51:14.809Z,19.80
2019-05-18T18:56:19.189Z,19.70
2019-05-18T19:01:25.202Z,19.60
2019-05-18T19:06:29.758Z,19.40
2019-05-18T19:11:34.158Z,19.30
2019-05-18T19:16:38.875Z,19.20
2019-05-18T19:21:43.296Z,19.10
2019-05-18T19:26:47.703Z,18.90
2019-05-18T19:31:52.224Z,18.80
2019-05-18T19:36:58.837Z,18.70
2019-05-18T19:42:03.284Z,18.60
2019-05-18T19:47:07.726Z,18.60
2019-05-18T19:52:12.344Z,18.60
2019-05-18T19:57:16.722Z,18.50
2019-05-18T20:02:21.204Z,18.40
2019-05-18T20:07:25.589Z,18.30
2019-05-18T20:13:26.843Z,18.10
2019-05-18T20:17:47.619Z,18.00
2019-05-18T20:22:58.608Z,17.80
2019-05-18T20:28:22.885Z,17.80
2019-05-18T20:33:24.330Z,17.70
2019-05-18T20:38:40.570Z,17.60
2019-05-18T20:45:07.129Z,17.50
2019-05-18T20:49:52.529Z,17.50
2019-05-18T20:54:49.863Z,17.40
2019-05-18T21:01:01.535Z,17.30
2019-05-18T21:11:05.770Z,17.20
2019-05-18T21:16:13.668Z,17.10
2019-05-18T21:21:25.433Z,17.00
2019-05-18T21:26:38.934Z,16.90
2019-05-18T21:31:46.087Z,16.90
2019-05-18T21:36:54.959Z,16.80
2019-05-18T21:42:06.815Z,16.70
2019-05-18T21:47:13.455Z,16.60
2019-05-18T21:52:21.752Z,16.50
2019-05-18T21:57:27.988Z,16.40
2019-05-18T22:02:34.171Z,16.40
2019-05-18T22:07:38.856Z,16.30
2019-05-18T22:12:45.151Z,16.30
2019-05-18T22:18:05.004Z,16.30
2019-05-18T22:23:09.729Z,16.30
2019-05-18T22:28:18.647Z,16.20
2019-05-18T22:33:28.951Z,16.20
2019-05-18T22:38:29.697Z,16.20
2019-05-18T22:43:34.417Z,16.30
2019-05-18T22:48:41.610Z,16.20
2019-05-18T22:53:50.922Z,16.20
2019-05-18T22:58:57.374Z,16.20
2019-05-18T23:04:03.742Z,16.20
2019-05-18T23:09:11.583Z,16.10
2019-05-18T23:14:19.220Z,16.20
2019-05-18T23:19:25.459Z,16.10
2019-05-18T23:24:30.055Z,16.00
2019-05-18T23:29:38.630Z,16.00
2019-05-18T23:34:43.199Z,15.90
2019-05-18T23:39:49.414Z,15.90
2019-05-18T23:44:56.766Z,15.90
2019-05-18T23:50:01.394Z,15.80
2019-05-18T23:55:07.658Z,15.80
